Flight Track Log - Related Links

Times and Time Zones

All times are in EDT time to prevent confusion due to time zone crossing. See the SWA3206 flight status page for this flight to view local times or setup timezone preferences in your user account.

Time Position Orientation Groundspeed Altitude Reporting Facility
EDT Latitude Longitude Course Direction KTS MPH feet Rate Location/Type
Fri 02:10:11 PM 41.8000 -87.8000 285° West 180 207 2,500  Level Chicago TRACON
Fri 02:11:11 PM 41.7833 -87.8833 255° West 235 270 4,900 2,427 Climbing Chicago TRACON
Fri 02:11:40 PM 41.7836 -87.9333 270° West 238 274 6,100 3,033 Climbing Chicago Center
Fri 02:12:42 PM 41.7878 -88.0383 273° West 283 326 9,500 2,952 Climbing Chicago Center
Fri 02:13:44 PM 41.7931 -88.1464 274° West 292 336 12,200 2,032 Climbing Chicago Center
Fri 02:14:46 PM 41.7981 -88.2739 273° West 342 394 13,700 2,049 Climbing Chicago Center
Fri 02:15:00 PM 41.9029 -88.4979 285° West  Level FlightAware Approximate
Fri 02:15:47 PM 41.7911 -88.4136 266° West 376 433 16,400  Level Chicago Center
Fri 02:16:49 PM 41.7572 -88.5811 255° West 389 448 19,100 2,323 Climbing Chicago Center
Fri 02:17:51 PM 41.7278 -88.7247 255° West 400 460 21,200 2,032 Climbing Chicago Center
Fri 02:18:53 PM 41.6978 -88.8722 255° West 414 476 23,300 1,887 Climbing Chicago Center
Fri 02:19:55 PM 41.6658 -89.0250 254° West 426 490 25,100 1,694 Climbing Chicago Center
Fri 02:20:57 PM 41.6344 -89.1783 255° West 431 496 26,800 1,694 Climbing Chicago Center
Fri 02:21:59 PM 41.5953 -89.3694 255° West 445 512 28,600 1,597 Climbing Chicago Center
Fri 02:23:01 PM 41.5611 -89.5303 254° West 450 518 30,100 1,854 Climbing Chicago Center
Fri 02:24:02 PM 41.5264 -89.6956 254° West 449 517 32,400 1,951 Climbing Chicago Center
Fri 02:25:04 PM 41.4939 -89.8492 254° West 435 501 34,100 1,452 Climbing Chicago Center
Fri 02:26:06 PM 41.4614 -90.0006 254° West 428 493 35,400 919 Climbing Chicago Center
Fri 02:27:08 PM 41.4289 -90.1533 254° West 431 496 36,000 871 Climbing Chicago Center
Fri 02:28:10 PM 41.3953 -90.3047 254° West 429 494 37,200 968 Climbing Chicago Center
Fri 02:29:12 PM 41.3561 -90.4850 254° West 425 489 38,000 387 Climbing Chicago Center
Fri 02:30:14 PM 41.3211 -90.6378 253° West 433 498 38,000  Level Chicago Center
Fri 02:31:16 PM 41.2778 -90.7831 248° West 426 490 38,000  Level Chicago Center
Fri 02:32:18 PM 41.2369 -90.9256 249° West 418 481 38,000  Level Chicago Center
Fri 02:33:20 PM 41.1947 -91.0692 249° West 418 481 38,000  Level Chicago Center
Fri 02:34:22 PM 41.1528 -91.2100 248° West 415 478 38,000  Level Chicago Center
Fri 02:35:24 PM 41.1008 -91.3800 248° West 416 479 38,000  Level Chicago Center
Fri 02:36:26 PM 41.0583 -91.5225 248° West 416 479 38,000  Level Chicago Center
Fri 02:37:28 PM 41.0133 -91.6708 248° West 417 480 38,000  Level Chicago Center
Fri 02:38:30 PM 40.9664 -91.8219 248° West 420 483 38,000  Level Chicago Center
Fri 02:39:32 PM 40.9233 -91.9656 248° West 423 487 38,000  Level Chicago Center
Fri 02:40:34 PM 40.8789 -92.1089 248° West 426 490 38,000  Level Chicago Center
Fri 02:41:36 PM 40.8375 -92.2528 249° West 424 488 38,000  Level Chicago Center
Fri 02:42:38 PM 40.8175 -92.4108 261° West 441 507 38,000  Level Chicago Center
Fri 02:43:40 PM 40.7914 -92.5994 260° West 441 507 38,000  Level Chicago Center
Fri 02:44:42 PM 40.7706 -92.7561 260° West 440 506 38,000  Level Chicago Center
Fri 02:45:44 PM 40.7489 -92.9133 260° West 442 509 38,000  Level Chicago Center
Fri 02:46:13 PM 40.7400 -92.9769 260° West 442 509 38,000  Level Minneapolis Center
Fri 02:47:15 PM 40.7117 -93.1644 259° West 440 506 38,000  Level Minneapolis Center
Fri 02:48:17 PM 40.6903 -93.3194 260° West 439 505 38,000  Level Minneapolis Center
Fri 02:49:19 PM 40.6675 -93.4767 259° West 440 506 38,000  Level Minneapolis Center
Fri 02:50:21 PM 40.6436 -93.6336 259° West 442 509 38,000  Level Minneapolis Center
Fri 02:51:23 PM 40.6161 -93.8211 259° West 440 506 38,000  Level Minneapolis Center
Fri 02:52:25 PM 40.5922 -93.9767 259° West 440 506 38,000  Level Minneapolis Center
Fri 02:53:27 PM 40.5669 -94.1322 258° West 438 504 38,000  Level Minneapolis Center
Fri 02:54:29 PM 40.5411 -94.2881 258° West 439 505 38,000  Level Minneapolis Center
Fri 02:55:31 PM 40.5117 -94.4442 256° West 442 509 38,000  Level Minneapolis Center
Fri 02:56:33 PM 40.4842 -94.6181 258° West 443 510 38,000  Level Minneapolis Center
Fri 02:57:35 PM 40.4575 -94.7769 258° West 444 511 38,000  Level Minneapolis Center
Fri 02:58:37 PM 40.4297 -94.9364 257° West 446 513 38,000  Level Minneapolis Center
Fri 02:59:39 PM 40.4078 -95.0642 257° West 446 513 38,000  Level Minneapolis Center
Fri 03:00:42 PM 40.3681 -95.2881 257° West 448 516 38,000  Level Minneapolis Center
Fri 03:01:44 PM 40.3392 -95.4472 257° West 447 514 38,000  Level Minneapolis Center
Fri 03:02:58 PM 40.3100 -95.6067 257° West 448 516 38,000  Level Minneapolis Center
Fri 03:04:00 PM 40.2761 -95.7983 257° West 449 517 38,000  Level Minneapolis Center
Fri 03:05:02 PM 40.2464 -95.9567 256° West 448 516 38,000  Level Minneapolis Center
Fri 03:06:04 PM 40.2167 -96.1172 256° West 451 519 38,000  Level Minneapolis Center
Fri 03:07:06 PM 40.1789 -96.3117 256° West 457 526 38,000  Level Minneapolis Center
Fri 03:08:21 PM 40.1361 -96.5031 254° West 456 525 38,000  Level Minneapolis Center
Fri 03:09:23 PM 40.1022 -96.6625 255° West 455 524 38,000  Level Minneapolis Center
Fri 03:10:24 PM 40.0742 -96.7897 254° West 455 524 38,000  Level Minneapolis Center
Fri 03:11:27 PM 40.0331 -96.9781 254° West 451 519 38,000  Level Minneapolis Center
Fri 03:12:28 PM 40.0044 -97.1014 253° West 447 514 38,000  Level Minneapolis Center
Fri 03:13:31 PM 39.9636 -97.2878 254° West 445 512 38,000  Level Minneapolis Center
Fri 03:14:32 PM 39.9258 -97.4506 253° West 446 513 38,000  Level Minneapolis Center
Fri 03:15:34 PM 39.8825 -97.6406 254° West 453 521 38,000  Level Minneapolis Center
Fri 03:16:36 PM 39.8461 -97.8008 254° West 458 527 38,000  Level Minneapolis Center
Fri 03:17:38 PM 39.8089 -97.9606 253° West 459 528 38,000  Level Minneapolis Center
Fri 03:18:40 PM 39.7719 -98.1208 253° West 461 531 38,000  Level Minneapolis Center
Fri 03:19:42 PM 39.7431 -98.2500 254° West 461 531 38,000  Level Minneapolis Center
Fri 03:20:44 PM 39.6978 -98.4417 253° West 461 531 38,000  Level Minneapolis Center
Fri 03:21:46 PM 39.6597 -98.5992 253° West 458 527 38,000  Level Minneapolis Center
Fri 03:22:48 PM 39.6214 -98.7569 253° West 457 526 38,000  Level Minneapolis Center
Fri 03:23:06 PM 39.6069 -98.8217 254° West 457 526 38,000  Level Denver Center
Fri 03:24:09 PM 39.5689 -98.9789 253° West 455 524 38,000  Level Denver Center
Fri 03:25:11 PM 39.5308 -99.1378 253° West 458 527 38,000  Level Denver Center
Fri 03:26:13 PM 39.4922 -99.2947 252° West 458 527 38,000  Level Denver Center
Fri 03:27:15 PM 39.4503 -99.4608 252° West 457 526 38,000  Level Denver Center
Fri 03:28:17 PM 39.4078 -99.6356 253° West 456 525 38,000  Level Denver Center
Fri 03:29:19 PM 39.3706 -99.7842 252° West 456 525 38,000  Level Denver Center
Fri 03:30:33 PM 39.3261 -99.9608 252° West 462 532 38,000  Level Denver Center
Fri 03:31:35 PM 39.2758 -100.1619 252° West 462 532 38,000  Level Denver Center
Fri 03:32:37 PM 39.2467 -100.2861 253° West 456 525 38,000  Level Denver Center
Fri 03:33:39 PM 39.2106 -100.4597 255° West 450 518 38,000  Level Denver Center
Fri 03:34:53 PM 39.1725 -100.6350 254° West 453 521 38,000  Level Denver Center
Fri 03:35:56 PM 39.1306 -100.8297 255° West 446 513 38,000  Level Denver Center
Fri 03:36:58 PM 39.0986 -100.9783 255° West 450 518 38,000  Level Denver Center
Fri 03:38:00 PM 39.0458 -101.1436 248° West 454 522 38,000  Level Denver Center
Fri 03:39:02 PM 38.9950 -101.2781 244° Southwest 454 522 38,000  Level Denver Center
Fri 03:40:04 PM 38.9333 -101.4392 244° Southwest 452 520 38,000  Level Denver Center
Fri 03:41:06 PM 38.8811 -101.5786 244° Southwest 452 520 38,000  Level Denver Center
Fri 03:42:08 PM 38.8192 -101.7403 244° Southwest 453 521 38,000  Level Denver Center
Fri 03:43:10 PM 38.7556 -101.8728 238° Southwest 459 528 38,000  Level Denver Center
Fri 03:44:12 PM 38.6781 -102.0239 237° Southwest 457 526 38,000  Level Denver Center
Fri 03:45:14 PM 38.6283 -102.1639 246° West 451 519 38,000  Level Denver Center
Fri 03:46:16 PM 38.5775 -102.3258 248° West 442 509 38,000  Level Denver Center
Fri 03:47:18 PM 38.5336 -102.4633 248° West 438 504 38,000  Level Denver Center
Fri 03:48:20 PM 38.4814 -102.6242 248° West 440 506 38,000  Level Denver Center
Fri 03:49:34 PM 38.4364 -102.7608 247° West 438 504 38,000  Level Denver Center
Fri 03:50:37 PM 38.3767 -102.9469 248° West 444 511 38,000  Level Denver Center
Fri 03:51:39 PM 38.3311 -103.0867 247° West 447 514 38,000  Level Denver Center
Fri 03:52:41 PM 38.2897 -103.2092 247° West 446 513 38,000  Level Denver Center
Fri 03:53:43 PM 38.2281 -103.3928 247° West 443 510 38,000  Level Denver Center
Fri 03:54:45 PM 38.1753 -103.5511 247° West 436 502 38,000  Level Denver Center
Fri 03:55:47 PM 38.1314 -103.6842 247° West 431 496 38,000  Level Denver Center
Fri 03:56:49 PM 38.0789 -103.8394 247° West 430 495 38,000  Level Denver Center
Fri 03:57:51 PM 38.0328 -103.9733 246° West 434 499 38,000  Level Denver Center
Fri 03:58:53 PM 37.9792 -104.1300 247° West 437 503 38,000  Level Denver Center
Fri 03:59:56 PM 37.9333 -104.2642 247° West 435 501 38,000  Level Denver Center
Fri 04:00:58 PM 37.8800 -104.4200 247° West 434 499 38,000  Level Denver Center
Fri 04:02:00 PM 37.8342 -104.5525 246° West 433 498 38,000  Level Denver Center
Fri 04:03:02 PM 37.7806 -104.7075 246° West 433 498 38,000  Level Denver Center
Fri 04:04:16 PM 37.7344 -104.8389 246° West 429 494 38,000  Level Denver Center
Fri 04:05:19 PM 37.6728 -105.0136 246° West 427 491 38,000  Level Denver Center
Fri 04:06:21 PM 37.6258 -105.1442 246° West 427 491 38,000  Level Denver Center
Fri 04:07:23 PM 37.5722 -105.2975 246° West 430 495 38,000  Level Denver Center
Fri 04:08:25 PM 37.5189 -105.4478 246° West 437 503 38,000  Level Denver Center
Fri 04:09:27 PM 37.4706 -105.5783 245° Southwest 433 498 38,000  Level Denver Center
Fri 04:10:29 PM 37.4158 -105.7314 246° West 429 494 38,000  Level Denver Center
Fri 04:11:31 PM 37.3686 -105.8619 246° West 428 493 38,000  Level Denver Center
Fri 04:12:32 PM 37.3283 -105.9706 245° Southwest 428 493 38,000  Level Denver Center
Fri 04:13:35 PM 37.2653 -106.1422 245° Southwest 425 489 38,000  Level Denver Center
Fri 04:14:37 PM 37.2189 -106.2728 246° West 428 493 38,000  Level Denver Center
Fri 04:15:39 PM 37.1639 -106.4233 245° Southwest 427 491 38,000  Level Denver Center
Fri 04:16:41 PM 37.1158 -106.5531 245° Southwest 430 495 38,000  Level Denver Center
Fri 04:17:43 PM 37.0583 -106.7042 245° Southwest 431 496 38,000  Level Denver Center
Fri 04:18:45 PM 37.0092 -106.8347 245° Southwest 432 497 38,000  Level Denver Center
Fri 04:19:47 PM 36.9536 -106.9892 246° West 435 501 38,000  Level Denver Center
Fri 04:20:49 PM 36.9056 -107.1192 245° Southwest 432 497 38,000  Level Denver Center
Fri 04:21:51 PM 36.8475 -107.2703 244° Southwest 433 498 38,000  Level Denver Center
Fri 04:22:53 PM 36.7972 -107.3992 244° Southwest 432 497 38,000  Level Denver Center
Fri 04:23:55 PM 36.7414 -107.5508 245° Southwest 432 497 38,000  Level Denver Center
Fri 04:24:56 PM 36.6914 -107.6806 244° Southwest 432 497 38,000  Level Denver Center
Fri 04:25:58 PM 36.6417 -107.8083 244° Southwest 429 494 38,000  Level Denver Center
Fri 04:27:00 PM 36.5836 -107.9586 244° Southwest 432 497 38,000  Level Denver Center
Fri 04:28:02 PM 36.5339 -108.0864 244° Southwest 429 494 38,000  Level Denver Center
Fri 04:29:04 PM 36.4767 -108.2344 244° Southwest 427 491 38,000  Level Denver Center
Fri 04:30:06 PM 36.4267 -108.3617 244° Southwest 427 491 38,000  Level Denver Center
Fri 04:31:08 PM 36.3686 -108.5089 244° Southwest 426 490 38,000  Level Denver Center
Fri 04:32:10 PM 36.3186 -108.6358 244° Southwest 428 493 38,000  Level Denver Center
Fri 04:33:12 PM 36.2614 -108.7819 244° Southwest 427 491 38,000  Level Denver Center
Fri 04:34:14 PM 36.2111 -108.9083 244° Southwest 431 496 38,000  Level Denver Center
Fri 04:35:16 PM 36.1522 -109.0542 243° Southwest 433 498 38,000  Level Denver Center
Fri 04:36:18 PM 36.1011 -109.1800 243° Southwest 432 497 38,000  Level Denver Center
Fri 04:36:37 PM 36.0844 -109.2208 243° Southwest 429 494 38,000  Level Albuquerque Center
Fri 04:37:39 PM 36.0250 -109.3689 244° Southwest 431 496 38,000  Level Albuquerque Center
Fri 04:38:21 PM 35.9906 -109.4525 243° Southwest 430 495 38,000  Level Denver Center
Fri 04:39:23 PM 35.9311 -109.5989 243° Southwest 429 494 38,000  Level Denver Center
Fri 04:40:37 PM 35.8800 -109.7244 243° Southwest 429 494 38,000  Level Denver Center
Fri 04:41:39 PM 35.8106 -109.8906 243° Southwest 427 491 38,000  Level Denver Center
Fri 04:42:41 PM 35.7597 -110.0147 243° Southwest 427 491 38,000  Level Denver Center
Fri 04:43:43 PM 35.7167 -110.1222 244° Southwest 422 486 38,000  Level Denver Center
Fri 04:44:45 PM 35.6517 -110.2781 243° Southwest 425 489 38,000  Level Denver Center
Fri 04:45:53 PM 35.5928 -110.4294 244° Southwest 424 488 38,000  Level Albuquerque Center
Fri 04:46:55 PM 35.5325 -110.5736 243° Southwest 425 489 38,000  Level Albuquerque Center
Fri 04:47:57 PM 35.4808 -110.6961 243° Southwest 424 488 38,000  Level Albuquerque Center
Fri 04:48:59 PM 35.4208 -110.8397 243° Southwest 423 487 38,000  Level Albuquerque Center
Fri 04:50:01 PM 35.3672 -110.9625 242° Southwest 424 488 38,000  Level Albuquerque Center
Fri 04:51:02 PM 35.3056 -111.1056 242° Southwest 428 493 38,000  Level Albuquerque Center
Fri 04:52:04 PM 35.2503 -111.2350 242° Southwest 430 495 38,000  Level Albuquerque Center
Fri 04:53:06 PM 35.1939 -111.3653 242° Southwest 433 498 38,000 -435 Level Albuquerque Center
Fri 04:54:08 PM 35.1381 -111.4947 242° Southwest 433 498 37,100 -871 Descending Albuquerque Center
Fri 04:55:10 PM 35.0828 -111.6217 242° Southwest 427 491 36,200 -774 Descending Albuquerque Center
Fri 04:56:12 PM 35.0247 -111.7506 241° Southwest 431 496 35,500 -871 Descending Albuquerque Center
Fri 04:57:14 PM 34.9550 -111.9078 242° Southwest 438 504 34,400 -726 Descending Albuquerque Center
Fri 04:58:16 PM 34.8983 -112.0375 242° Southwest 436 502 34,000 -194 Descending Albuquerque Center
Fri 04:59:18 PM 34.8406 -112.1683 242° Southwest 439 505 34,000  Level Albuquerque Center
Fri 05:00:20 PM 34.7833 -112.2978 242° Southwest 437 503 34,000  Level Albuquerque Center
Fri 05:01:22 PM 34.7269 -112.4269 242° Southwest 434 499 34,000  Level Albuquerque Center
Fri 05:02:24 PM 34.6825 -112.5611 248° West 432 497 34,000  Level Albuquerque Center
Fri 05:03:25 PM 34.6461 -112.6972 252° West 427 491 34,000  Level Albuquerque Center
Fri 05:04:27 PM 34.6028 -112.8600 252° West 424 488 34,000  Level Albuquerque Center
Fri 05:05:29 PM 34.5667 -112.9956 252° West 423 487 34,000  Level Albuquerque Center
Fri 05:06:31 PM 34.5294 -113.1328 252° West 426 490 34,000  Level Albuquerque Center
Fri 05:07:33 PM 34.4928 -113.2692 252° West 426 490 34,000  Level Albuquerque Center
Fri 05:08:35 PM 34.4561 -113.4072 252° West 429 494 34,000  Level Albuquerque Center
Fri 05:09:37 PM 34.4142 -113.5581 251° West 429 494 34,000  Level Albuquerque Center
Fri 05:10:39 PM 34.3728 -113.7056 251° West 421 484 34,000  Level Albuquerque Center
Fri 05:11:41 PM 34.3369 -113.8406 252° West 421 484 34,000  Level Albuquerque Center
Fri 05:12:43 PM 34.2997 -113.9753 252° West 421 484 34,000  Level Albuquerque Center
Fri 05:13:44 PM 34.2625 -114.1083 251° West 420 483 34,000  Level Albuquerque Center
Fri 05:14:46 PM 34.2256 -114.2425 252° West 420 483 34,000 -435 Level Albuquerque Center
Fri 05:15:48 PM 34.1881 -114.3753 251° West 419 482 33,100 -982 Descending Albuquerque Center
Fri 05:16:36 PM 34.1550 -114.4953 252° West 425 489 32,200 -1,036 Descending Los Angeles Center
Fri 05:17:38 PM 34.1161 -114.6336 251° West 433 498 31,200 -919 Descending Los Angeles Center
Fri 05:18:40 PM 34.0647 -114.7661 245° Southwest 438 504 30,300 -629 Descending Los Angeles Center
Fri 05:19:42 PM 34.0072 -114.8958 242° Southwest 439 505 29,900 -145 Descending Los Angeles Center
Fri 05:20:44 PM 33.9644 -114.9956 243° Southwest 425 489 30,000 -581 Climbing Los Angeles Center
Fri 05:21:46 PM 33.8867 -115.1717 242° Southwest 423 487 28,700 -1,113 Descending Los Angeles Center
Fri 05:22:48 PM 33.8294 -115.2969 241° Southwest 427 491 27,700 -968 Descending Los Angeles Center
Fri 05:23:50 PM 33.7736 -115.4217 242° Southwest 426 490 26,700 -960 Descending Los Angeles Center
Fri 05:24:53 PM 33.7192 -115.5439 242° Southwest 419 482 25,700 -960 Descending Los Angeles Center
Fri 05:25:55 PM 33.6642 -115.6667 242° Southwest 418 481 24,700 -823 Descending Los Angeles Center
Fri 05:26:57 PM 33.5950 -115.8086 240° Southwest 414 476 24,000 -339 Descending Los Angeles Center
Fri 05:27:59 PM 33.5294 -115.9214 235° Southwest 415 478 24,000 -48 Level Los Angeles Center
Fri 05:29:01 PM 33.4508 -116.0203 226° Southwest 413 475 23,900 -1,210 Descending Los Angeles Center
Fri 05:30:03 PM 33.3619 -116.1047 218° Southwest 410 472 21,500 -2,162 Descending Los Angeles Center
Fri 05:31:17 PM 33.2750 -116.1875 219° Southwest 403 464 19,000 -2,628 Descending Los Angeles Center
Fri 05:32:20 PM 33.1583 -116.2994 219° Southwest 388 447 15,500 -2,832 Descending Los Angeles Center
Fri 05:33:22 PM 33.0772 -116.3767 219° Southwest 379 436 13,100 -1,694 Descending Los Angeles Center
Fri 05:34:24 PM 33.0072 -116.4411 218° Southwest 366 421 12,000 -629 Descending Los Angeles Center
Fri 05:35:26 PM 32.9117 -116.4978 206° Southwest 324 373 11,800 -823 Descending Los Angeles Center
Fri 05:36:28 PM 32.8297 -116.5464 206° Southwest 318 366 10,300 -1,355 Descending Los Angeles Center
Fri 05:37:30 PM 32.7558 -116.5897 206° Southwest 306 352 9,000 -1,258 Descending Los Angeles Center
Fri 05:38:32 PM 32.7272 -116.6747 248° West 291 335 7,700 -968 Descending Los Angeles Center
Fri 05:39:34 PM 32.7081 -116.7597 255° West 273 314 7,000 -823 Descending Los Angeles Center
Fri 05:40:36 PM 32.6925 -116.8392 257° West 254 292 6,000 -1,113 Descending Los Angeles Center
Fri 05:41:38 PM 32.6758 -116.9156 255° West 243 280 4,700 -1,344 Descending Los Angeles Center
Fri 05:42:41 PM 32.6878 -117.0019 279° West 227 261 3,200 -1,248 Descending Los Angeles Center
Fri 05:43:43 PM 32.7031 -117.0642 286° West 201 231 2,100 -968 Descending Los Angeles Center
Fri 05:44:45 PM 32.7167 -117.1167 287° West 132 152 1,200 -683 Descending Southern California TRACON
Fri 05:45:46 PM 32.7222 -117.1436 284° West 138 159 700 -492 Descending Los Angeles Center
Fri 05:48:00 PM 32.7333 -117.1833 281° West  Level FlightAware Approximate

Login

Don't have an account? Register now (free) for customized features, flight alerts, and more!